Time;durP1;ratioP1;P1;durP2;ratioP2;P2;SDS_P1;SDS_P2;PMS_P1;PMS_P2;Temp;Humidity;BMP_temperature;BMP_pressure;BME280_temperature;BME280_humidity;BME280_pressure;Samples;Min_cycle;Max_cycle;Signal;HPM_P1;HPM_P2
2023/04/08 00:02:40;;;;;;;25.50;21.10;;;;;;;5.61;60.04;101090.59;20826087;28;20184;-82
2023/04/08 00:12:42;;;;;;;26.43;19.63;;;;;;;5.69;59.58;101100.34;20824836;28;20204;-85
2023/04/08 00:22:45;;;;;;;28.73;18.63;;;;;;;5.24;60.54;101104.25;20824557;28;20521;-81
2023/04/08 00:32:47;;;;;;;67.03;20.03;;;;;;;5.43;58.85;101110.03;20821596;28;20290;-82
2023/04/08 00:42:50;;;;;;;127.33;28.07;;;;;;;4.80;62.38;101109.72;20822311;28;20181;-81
2023/04/08 00:52:52;;;;;;;296.87;36.37;;;;;;;4.90;63.18;101120.88;20822078;28;20601;-81
2023/04/08 01:03:06;;;;;;;113.07;25.53;;;;;;;5.24;61.02;101116.28;20845251;28;20314;-81
2023/04/08 01:13:11;;;;;;;148.43;23.63;;;;;;;4.31;63.67;101141.16;20821231;28;20216;-84
2023/04/08 01:23:23;;;;;;;116.87;21.90;;;;;;;5.25;61.34;101126.34;20824521;28;20224;-81
2023/04/08 01:33:26;;;;;;;134.00;23.30;;;;;;;3.82;66.11;101135.25;20835068;28;20224;-84
2023/04/08 01:43:31;;;;;;;98.43;21.23;;;;;;;4.96;61.61;101128.16;20836810;28;20180;-82
2023/04/08 01:53:33;;;;;;;107.00;19.97;;;;;;;3.98;64.48;101136.94;20835280;28;20242;-83
2023/04/08 02:03:35;;;;;;;103.53;21.47;;;;;;;4.39;63.53;101132.19;20839501;28;20173;-84
2023/04/08 02:13:38;;;;;;;128.77;19.53;;;;;;;4.43;63.07;101136.09;20831079;28;20224;-82
2023/04/08 02:23:41;;;;;;;194.53;23.13;;;;;;;4.53;63.70;101136.06;20846464;28;20221;-83
2023/04/08 02:33:43;;;;;;;175.20;22.13;;;;;;;4.12;65.88;101153.97;20844587;28;20212;-83
2023/04/08 02:43:46;;;;;;;210.43;28.00;;;;;;;4.41;64.72;101146.72;20845009;28;20181;-84
2023/04/08 02:53:49;;;;;;;217.73;23.83;;;;;;;4.23;65.60;101144.53;20844421;28;20231;-84
2023/04/08 03:03:51;;;;;;;308.77;34.77;;;;;;;4.72;63.64;101158.72;20829282;28;20224;-80
2023/04/08 03:13:53;;;;;;;271.93;28.80;;;;;;;4.22;65.33;101159.59;20746524;28;20263;-80
2023/04/08 03:23:55;;;;;;;137.03;22.67;;;;;;;4.55;63.98;101159.00;20761846;28;20225;-80
2023/04/08 03:33:57;;;;;;;274.60;31.67;;;;;;;4.30;64.41;101163.78;20810150;28;20273;-80
2023/04/08 03:44:00;;;;;;;215.67;29.30;;;;;;;4.09;65.73;101172.16;20816367;28;20667;-80
2023/04/08 03:54:02;;;;;;;135.90;24.20;;;;;;;4.24;63.91;101174.94;20825707;28;20220;-81
2023/04/08 04:04:04;;;;;;;200.57;29.50;;;;;;;4.01;64.40;101169.88;20808531;28;20219;-80
2023/04/08 04:14:06;;;;;;;118.40;19.77;;;;;;;4.21;63.43;101178.34;20826021;28;20216;-79
2023/04/08 04:24:08;;;;;;;120.50;23.17;;;;;;;3.92;64.55;101181.91;20813173;28;20691;-79
2023/04/08 04:34:10;;;;;;;110.60;17.27;;;;;;;4.14;65.03;101186.13;20829979;28;20216;-79
2023/04/08 04:44:12;;;;;;;118.77;20.67;;;;;;;4.43;63.11;101193.97;20740898;28;20247;-79
2023/04/08 04:54:15;;;;;;;179.00;28.90;;;;;;;4.45;62.61;101208.50;20724222;28;20217;-79
2023/04/08 05:04:17;;;;;;;56.30;15.27;;;;;;;4.55;62.73;101200.94;20832118;28;20207;-79
2023/04/08 05:14:19;;;;;;;101.57;18.87;;;;;;;4.86;62.09;101209.31;20833112;28;20290;-79
2023/04/08 05:24:21;;;;;;;50.57;12.53;;;;;;;4.40;62.55;101211.28;20833245;28;20281;-79
2023/04/08 05:34:23;;;;;;;56.97;12.70;;;;;;;4.52;61.30;101221.09;20826795;28;20873;-79
2023/04/08 05:44:25;;;;;;;90.23;14.70;;;;;;;4.54;62.42;101241.22;20803351;28;20205;-79
2023/04/08 05:54:28;;;;;;;42.43;13.67;;;;;;;4.53;61.61;101245.13;20827755;28;20488;-78
2023/04/08 06:04:30;;;;;;;28.83;11.17;;;;;;;3.89;63.36;101247.53;20797160;28;20251;-78
2023/04/08 06:14:33;;;;;;;36.83;12.57;;;;;;;4.70;62.20;101269.19;20812542;28;20221;-79
2023/04/08 06:24:35;;;;;;;28.90;13.33;;;;;;;4.27;62.71;101273.34;20793709;28;20236;-80
2023/04/08 06:34:37;;;;;;;22.90;12.63;;;;;;;4.08;64.31;101293.41;20815009;28;20624;-80
2023/04/08 06:44:39;;;;;;;25.77;14.33;;;;;;;4.74;61.48;101298.28;20792180;28;20594;-80
2023/04/08 06:54:42;;;;;;;27.10;17.90;;;;;;;4.82;60.91;101303.31;20777186;28;20521;-80
2023/04/08 07:04:44;;;;;;;30.23;19.43;;;;;;;4.68;61.75;101314.22;20798134;28;20550;-80
2023/04/08 07:14:48;;;;;;;30.07;20.73;;;;;;;5.09;61.17;101315.06;20808827;28;20302;-80
2023/04/08 07:24:50;;;;;;;25.83;19.93;;;;;;;4.53;61.00;101330.97;20812762;28;20232;-85
2023/04/08 07:34:53;;;;;;;25.00;18.30;;;;;;;5.36;59.51;101344.69;20814710;28;20220;-78
2023/04/08 07:44:55;;;;;;;21.37;18.03;;;;;;;5.56;59.70;101337.09;20809343;28;20196;-87
2023/04/08 07:54:57;;;;;;;18.57;14.63;;;;;;;5.83;58.90;101342.34;20810635;28;20216;-81
2023/04/08 08:05:00;;;;;;;14.70;13.20;;;;;;;5.75;58.00;101359.75;20803071;28;22612;-81
2023/04/08 08:15:03;;;;;;;14.37;12.83;;;;;;;5.25;60.01;101371.84;20789590;28;20764;-81
2023/04/08 08:25:06;;;;;;;14.10;12.70;;;;;;;6.02;56.96;101367.78;20813950;28;20228;-80
2023/04/08 08:35:08;;;;;;;14.30;12.63;;;;;;;5.87;56.35;101379.03;20814676;28;20224;-80
2023/04/08 08:45:10;;;;;;;12.97;11.67;;;;;;;6.67;54.70;101402.25;20795190;28;20196;-80
2023/04/08 08:55:13;;;;;;;11.80;8.93;;;;;;;5.76;55.30;101411.03;20800911;28;20234;-80
2023/04/08 09:05:49;;;;;;;10.57;8.37;;;;;;;5.16;56.53;101413.56;20808946;28;20682;-81
2023/04/08 09:16:05;;;;;;;10.93;8.93;;;;;;;5.44;57.61;101414.13;20798815;28;20536;-81
2023/04/08 09:26:21;;;;;;;11.57;8.00;;;;;;;6.02;55.39;101413.47;20806273;28;20224;-81
2023/04/08 09:36:26;;;;;;;8.73;7.80;;;;;;;5.77;54.59;101415.50;20795522;28;20216;-86
2023/04/08 09:46:47;;;;;;;9.93;7.67;;;;;;;5.78;54.82;101426.44;20819548;28;20196;-82
2023/04/08 09:57:02;;;;;;;9.50;7.73;;;;;;;6.47;53.19;101425.59;20803429;28;20284;-82
2023/04/08 10:07:06;;;;;;;10.27;8.77;;;;;;;6.14;53.53;101426.31;20817348;28;20763;-81
2023/04/08 10:17:24;;;;;;;9.60;8.50;;;;;;;5.67;53.59;101433.16;20812053;28;20255;-81
2023/04/08 10:27:39;;;;;;;10.30;8.53;;;;;;;5.49;55.85;101439.34;20803925;28;20517;-81
2023/04/08 10:37:42;;;;;;;10.60;9.50;;;;;;;6.80;52.77;101428.84;20805785;28;20256;-82
2023/04/08 10:47:45;;;;;;;11.10;9.63;;;;;;;7.47;50.89;101410.34;20816796;28;20272;-82
2023/04/08 10:57:47;;;;;;;11.00;9.90;;;;;;;6.67;52.94;101407.88;20817836;28;20247;-82
2023/04/08 11:07:51;;;;;;;12.53;11.17;;;;;;;7.35;52.45;101408.75;20814498;28;20286;-84
2023/04/08 11:17:54;;;;;;;11.17;10.00;;;;;;;6.54;54.62;101414.91;20808813;28;20252;-83
2023/04/08 11:27:56;;;;;;;10.93;9.83;;;;;;;7.36;53.78;101396.34;20797025;28;20564;-81
2023/04/08 11:37:58;;;;;;;11.27;9.53;;;;;;;8.14;51.59;101396.09;20808751;28;20212;-81
2023/04/08 11:48:08;;;;;;;8.80;7.90;;;;;;;7.77;51.26;101410.03;20800584;28;20482;-81
2023/04/08 11:58:10;;;;;;;8.63;7.73;;;;;;;7.94;51.70;101404.78;20801186;28;20220;-81
2023/04/08 12:08:12;;;;;;;7.70;6.93;;;;;;;7.96;51.85;101399.72;20779863;28;20251;-81
2023/04/08 12:18:15;;;;;;;8.53;7.50;;;;;;;7.50;52.46;101412.53;20801084;28;20302;-84
2023/04/08 12:28:17;;;;;;;7.93;7.13;;;;;;;8.43;50.43;101407.28;20796713;28;22100;-81
2023/04/08 12:38:19;;;;;;;7.57;6.87;;;;;;;8.56;51.56;101405.69;20801081;28;20224;-81
2023/04/08 12:48:22;;;;;;;10.10;7.77;;;;;;;9.00;50.41;101402.53;20769794;28;20268;-80
2023/04/08 12:58:24;;;;;;;12.30;10.17;;;;;;;8.29;50.54;101405.50;20771291;28;20259;-84
2023/04/08 13:08:26;;;;;;;8.97;8.07;;;;;;;8.92;48.61;101411.66;20802348;28;20235;-85
2023/04/08 13:18:29;;;;;;;9.48;8.48;;;;;;;8.82;49.93;101401.41;20807028;28;20286;-83
2023/04/08 13:28:31;;;;;;;9.73;8.60;;;;;;;8.83;49.64;101405.88;20810353;28;21007;-85
2023/04/08 13:38:33;;;;;;;10.53;9.43;;;;;;;8.77;49.98;101400.66;20798048;28;20251;-85
2023/04/08 13:48:35;;;;;;;10.60;9.37;;;;;;;8.40;50.90;101407.88;20813830;28;20192;-84
2023/04/08 13:58:37;;;;;;;11.25;8.70;;;;;;;8.94;51.44;101406.56;20811717;28;20224;-80
2023/04/08 14:08:40;;;;;;;11.30;10.20;;;;;;;8.29;52.46;101411.97;20809970;28;20213;-81
2023/04/08 14:18:42;;;;;;;14.83;11.07;;;;;;;9.33;49.25;101392.13;20814678;28;20302;-81
2023/04/08 14:28:46;;;;;;;12.48;10.60;;;;;;;8.84;51.28;101401.94;20787063;28;20220;-88
2023/04/08 14:38:49;;;;;;;11.73;10.53;;;;;;;9.25;49.69;101390.00;20814744;28;20220;-86
2023/04/08 14:48:52;;;;;;;11.85;9.88;;;;;;;8.84;50.88;101396.31;20793904;28;20682;-80
2023/04/08 14:58:54;;;;;;;13.33;10.10;;;;;;;9.34;49.73;101382.53;20809886;28;20685;-80
2023/04/08 15:08:57;;;;;;;10.40;9.30;;;;;;;9.43;49.78;101385.50;20790965;28;20242;-80
2023/04/08 15:18:59;;;;;;;11.18;9.80;;;;;;;9.39;49.69;101378.78;20806755;28;20256;-81
2023/04/08 15:29:03;;;;;;;10.85;9.73;;;;;;;9.40;49.25;101381.28;20783423;28;20212;-81
2023/04/08 15:39:05;;;;;;;12.68;10.35;;;;;;;9.10;50.59;101381.81;20807565;28;20243;-79
2023/04/08 15:49:07;;;;;;;11.43;9.67;;;;;;;9.34;50.45;101393.78;20811573;28;20239;-82
2023/04/08 15:59:10;;;;;;;10.90;9.73;;;;;;;9.14;51.19;101391.34;20797455;28;20240;-82
2023/04/08 16:09:12;;;;;;;13.77;10.90;;;;;;;9.94;48.87;101385.38;20799020;28;20493;-80
2023/04/08 16:19:14;;;;;;;14.20;11.40;;;;;;;9.19;50.35;101389.25;20797044;28;20228;-84
2023/04/08 16:29:16;;;;;;;20.08;15.48;;;;;;;9.12;51.02;101393.63;20800557;28;20260;-82
2023/04/08 16:39:18;;;;;;;14.33;11.83;;;;;;;9.45;50.47;101395.28;20810216;28;20213;-82
2023/04/08 16:49:21;;;;;;;15.73;12.90;;;;;;;9.22;51.35;101393.44;20814638;28;20593;-85
2023/04/08 16:59:23;;;;;;;16.47;13.60;;;;;;;9.04;52.44;101386.72;20801956;28;20282;-87
2023/04/08 17:09:29;;;;;;;17.87;15.60;;;;;;;8.60;54.40;101401.13;20821161;28;20200;-84
2023/04/08 17:19:32;;;;;;;22.02;16.50;;;;;;;9.39;52.16;101395.69;20797033;28;20228;-83
2023/04/08 17:29:34;;;;;;;21.50;16.27;;;;;;;8.52;54.45;101404.66;20802633;28;20242;-83
2023/04/08 17:39:39;;;;;;;22.63;18.33;;;;;;;8.61;54.12;101413.25;20813261;28;20298;-80
2023/04/08 17:49:41;;;;;;;34.60;26.67;;;;;;;8.76;53.72;101418.69;20822086;28;20205;-85
2023/04/08 17:59:44;;;;;;;23.50;18.50;;;;;;;8.71;53.98;101430.84;20819744;28;20258;-83
2023/04/08 18:09:47;;;;;;;23.97;18.93;;;;;;;8.98;52.90;101427.34;20805882;28;20197;-84
2023/04/08 18:19:50;;;;;;;21.07;17.77;;;;;;;8.71;53.75;101430.84;20804789;28;20244;-83
2023/04/08 18:29:52;;;;;;;22.87;16.97;;;;;;;8.33;54.44;101451.59;20790301;28;20189;-81
2023/04/08 18:39:54;;;;;;;21.50;17.83;;;;;;;8.39;54.77;101464.47;20781772;28;20245;-85
2023/04/08 18:49:57;;;;;;;21.57;15.60;;;;;;;8.40;54.60;101474.56;20789093;28;20224;-85
2023/04/08 18:59:59;;;;;;;22.70;15.70;;;;;;;8.27;54.65;101476.13;20782145;28;20217;-88
2023/04/08 19:10:02;;;;;;;24.40;18.07;;;;;;;8.81;52.87;101472.94;20794830;28;20197;-79
2023/04/08 19:20:04;;;;;;;19.33;15.57;;;;;;;8.34;54.54;101478.59;20768186;28;20310;-83
2023/04/08 19:30:07;;;;;;;22.27;16.25;;;;;;;8.38;53.81;101482.50;20770962;28;20185;-81
2023/04/08 19:40:10;;;;;;;21.23;16.70;;;;;;;8.03;55.33;101492.16;20738378;28;20298;-81
2023/04/08 19:50:14;;;;;;;22.83;18.60;;;;;;;8.32;54.42;101495.78;20779838;28;20731;-81
2023/04/08 20:00:16;;;;;;;24.25;18.83;;;;;;;8.33;53.63;101491.81;20761990;28;20301;-82
2023/04/08 20:10:19;;;;;;;21.20;16.40;;;;;;;8.03;54.51;101498.59;20762963;28;20220;-82
2023/04/08 20:20:22;;;;;;;21.03;15.57;;;;;;;7.95;54.19;101496.44;20775913;28;20235;-84
2023/04/08 20:30:28;;;;;;;21.10;16.13;;;;;;;8.03;53.29;101498.59;20780318;28;20220;-83
2023/04/08 20:40:30;;;;;;;20.90;17.30;;;;;;;7.56;55.50;101502.13;20783073;28;20216;-82
2023/04/08 20:50:33;;;;;;;25.47;17.97;;;;;;;7.23;55.80;101517.00;20789119;28;20274;-80
2023/04/08 21:00:35;;;;;;;27.57;20.90;;;;;;;7.95;53.79;101510.50;20782059;28;20247;-81
2023/04/08 21:10:37;;;;;;;27.83;20.27;;;;;;;8.17;53.16;101501.56;20820881;28;20197;-81
2023/04/08 21:20:39;;;;;;;24.92;19.17;;;;;;;7.76;54.79;101509.56;20821606;28;20239;-80
2023/04/08 21:30:42;;;;;;;23.00;17.53;;;;;;;7.65;54.54;101497.56;20812587;28;20196;-81
2023/04/08 21:40:44;;;;;;;23.53;17.70;;;;;;;7.50;55.12;101494.00;20817135;28;20538;-81
2023/04/08 21:50:46;;;;;;;22.73;17.57;;;;;;;7.08;55.75;101503.88;20831262;28;20848;-81
2023/04/08 22:00:49;;;;;;;26.27;18.20;;;;;;;6.96;56.08;101500.59;20828410;28;20291;-81
2023/04/08 22:10:51;;;;;;;26.93;18.93;;;;;;;6.65;55.88;101511.97;20838077;28;20597;-81
2023/04/08 22:20:54;;;;;;;27.93;20.57;;;;;;;6.72;57.12;101511.63;20820938;28;20648;-82
2023/04/08 22:30:56;;;;;;;28.40;19.90;;;;;;;6.54;56.73;101510.31;20828532;28;20197;-81
2023/04/08 22:40:58;;;;;;;30.00;20.67;;;;;;;6.17;58.17;101509.88;20820964;28;20239;-80
2023/04/08 22:51:00;;;;;;;30.07;21.57;;;;;;;6.17;57.86;101509.88;20822716;28;20327;-80
2023/04/08 23:01:23;;;;;;;30.83;21.73;;;;;;;6.08;58.16;101503.13;20832735;28;20217;-81
2023/04/08 23:11:26;;;;;;;32.37;22.33;;;;;;;6.02;57.86;101507.94;20827520;28;20475;-82
2023/04/08 23:21:28;;;;;;;29.53;20.60;;;;;;;5.71;59.22;101501.50;20828472;28;20254;-82
2023/04/08 23:31:30;;;;;;;28.07;20.33;;;;;;;5.92;58.82;101503.19;20841977;28;20196;-82
2023/04/08 23:41:32;;;;;;;27.57;20.07;;;;;;;5.64;59.08;101500.97;20831593;28;20326;-82
2023/04/08 23:51:35;;;;;;;26.03;18.93;;;;;;;5.86;57.78;101497.84;20832204;28;20200;-83
